Time;durP1;ratioP1;P1;durP2;ratioP2;P2;SDS_P1;SDS_P2;PMS_P1;PMS_P2;Temp;Humidity;BMP_temperature;BMP_pressure;BME280_temperature;BME280_humidity;BME280_pressure;Samples;Min_cycle;Max_cycle;Signal;HPM_P1;HPM_P2
2023/10/21 00:00:44;;;;;;;40.78;17.08;;;;;;;;;;5089893;28;20458;-74
2023/10/21 00:03:10;;;;;;;48.70;16.85;;;;;;;;;;5088689;28;20451;-74
2023/10/21 00:05:36;;;;;;;42.40;16.23;;;;;;;;;;5083854;28;20040;-74
2023/10/21 00:08:03;;;;;;;41.45;16.55;;;;;;;;;;5087847;28;20059;-74
2023/10/21 00:10:29;;;;;;;43.92;16.20;;;;;;;;;;5091297;28;20048;-74
2023/10/21 00:12:55;;;;;;;43.53;16.70;;;;;;;;;;5089205;28;20398;-74
2023/10/21 00:15:21;;;;;;;43.00;15.70;;;;;;;;;;5086656;28;20047;-74
2023/10/21 00:17:47;;;;;;;43.47;16.67;;;;;;;;;;5089346;28;20032;-74
2023/10/21 00:20:14;;;;;;;45.80;16.95;;;;;;;;;;5089805;28;20109;-74
2023/10/21 00:22:40;;;;;;;45.30;16.45;;;;;;;;;;5089876;28;20047;-74
2023/10/21 00:25:06;;;;;;;44.03;18.10;;;;;;;;;;5088872;28;20051;-74
2023/10/21 00:27:32;;;;;;;41.08;16.35;;;;;;;;;;5090218;28;20038;-74
2023/10/21 00:29:58;;;;;;;51.13;17.08;;;;;;;;;;5090978;28;20044;-74
2023/10/21 00:32:24;;;;;;;40.58;16.23;;;;;;;;;;5093880;28;20093;-74
2023/10/21 00:34:50;;;;;;;47.25;16.75;;;;;;;;;;5093543;28;20032;-74
2023/10/21 00:37:16;;;;;;;67.40;15.73;;;;;;;;;;5093896;28;20135;-74
2023/10/21 00:39:42;;;;;;;43.67;15.40;;;;;;;;;;5094428;28;20107;-74
2023/10/21 00:42:08;;;;;;;47.25;16.05;;;;;;;;;;5092714;28;20504;-74
2023/10/21 00:44:35;;;;;;;50.58;17.30;;;;;;;;;;5092978;28;20038;-74
2023/10/21 00:47:01;;;;;;;47.63;16.30;;;;;;;;;;5093919;28;20043;-74
2023/10/21 00:49:29;;;;;;;140.70;18.08;;;;;;;;;;5094263;28;20040;-74
2023/10/21 00:51:56;;;;;;;65.10;15.40;;;;;;;;;;5093200;28;20039;-74
2023/10/21 00:54:25;;;;;;;91.53;17.77;;;;;;;;;;5093040;28;20035;-74
2023/10/21 00:56:51;;;;;;;51.72;16.42;;;;;;;;;;5092571;28;20032;-74
2023/10/21 00:59:17;;;;;;;197.35;19.85;;;;;;;;;;5094279;28;20592;-75
2023/10/21 01:01:44;;;;;;;47.05;14.85;;;;;;;;;;5094557;28;20036;-75
2023/10/21 01:04:10;;;;;;;85.25;18.02;;;;;;;;;;5092793;28;20070;-75
2023/10/21 01:06:36;;;;;;;156.85;19.05;;;;;;;;;;5092287;28;20197;-75
2023/10/21 01:09:02;;;;;;;165.38;18.08;;;;;;;;;;5092398;28;20379;-75
2023/10/21 01:11:28;;;;;;;138.85;16.63;;;;;;;;;;5092813;28;20043;-75
2023/10/21 01:13:56;;;;;;;115.00;15.18;;;;;;;;;;5092526;28;20036;-75
2023/10/21 01:16:22;;;;;;;46.95;14.77;;;;;;;;;;5086254;28;20545;-75
2023/10/21 01:18:48;;;;;;;194.25;18.85;;;;;;;;;;5093050;28;20539;-75
2023/10/21 01:21:14;;;;;;;65.00;14.50;;;;;;;;;;5092765;28;20557;-74
2023/10/21 01:23:40;;;;;;;57.20;14.15;;;;;;;;;;5093072;28;20511;-75
2023/10/21 01:26:06;;;;;;;44.15;13.95;;;;;;;;;;5093791;28;20040;-74
2023/10/21 01:28:33;;;;;;;53.90;14.20;;;;;;;;;;5092483;28;20068;-74
2023/10/21 01:30:59;;;;;;;39.53;14.15;;;;;;;;;;5091399;28;20036;-74
2023/10/21 01:33:25;;;;;;;39.25;13.93;;;;;;;;;;5091971;28;20035;-74
2023/10/21 01:35:51;;;;;;;37.00;14.23;;;;;;;;;;5093585;28;20036;-74
2023/10/21 01:38:18;;;;;;;50.90;12.27;;;;;;;;;;5093256;28;20502;-74
2023/10/21 01:40:44;;;;;;;43.90;13.35;;;;;;;;;;5091746;28;20036;-74
2023/10/21 01:43:10;;;;;;;35.92;13.57;;;;;;;;;;5091009;28;20036;-74
2023/10/21 01:45:36;;;;;;;99.80;16.23;;;;;;;;;;5075303;28;20051;-74
2023/10/21 01:48:03;;;;;;;63.40;13.38;;;;;;;;;;5092411;28;20118;-74
2023/10/21 01:50:29;;;;;;;36.80;13.38;;;;;;;;;;5092751;28;20051;-74
2023/10/21 01:52:55;;;;;;;39.85;14.38;;;;;;;;;;5093107;28;20032;-74
2023/10/21 01:55:21;;;;;;;62.65;14.77;;;;;;;;;;5092027;28;20053;-74
2023/10/21 01:57:47;;;;;;;41.00;14.32;;;;;;;;;;5093071;28;20039;-75
2023/10/21 02:00:18;;;;;;;96.35;16.10;;;;;;;;;;5070711;28;20040;-74
2023/10/21 02:02:48;;;;;;;37.95;14.57;;;;;;;;;;5090663;28;20043;-74
2023/10/21 02:05:14;;;;;;;39.80;16.00;;;;;;;;;;5090883;28;20048;-74
2023/10/21 02:07:40;;;;;;;41.85;14.90;;;;;;;;;;5090855;28;21397;-75
2023/10/21 02:10:06;;;;;;;42.25;15.68;;;;;;;;;;5091785;28;20036;-75
2023/10/21 02:12:32;;;;;;;46.72;15.32;;;;;;;;;;5092728;28;20403;-75
2023/10/21 02:14:58;;;;;;;52.45;16.08;;;;;;;;;;5089322;28;20089;-75
2023/10/21 02:17:24;;;;;;;44.47;15.30;;;;;;;;;;5090968;28;20039;-75
2023/10/21 02:19:56;;;;;;;43.15;16.10;;;;;;;;;;5091937;28;20500;-75
2023/10/21 02:22:26;;;;;;;43.25;15.77;;;;;;;;;;5090771;28;20040;-75
2023/10/21 02:24:53;;;;;;;43.83;15.88;;;;;;;;;;5092120;28;20093;-75
2023/10/21 02:27:19;;;;;;;49.13;16.80;;;;;;;;;;5091018;28;20040;-75
2023/10/21 02:29:45;;;;;;;44.55;16.40;;;;;;;;;;5091395;28;20036;-75
2023/10/21 02:32:11;;;;;;;38.53;15.65;;;;;;;;;;5090592;28;20093;-75
2023/10/21 02:34:37;;;;;;;49.80;16.52;;;;;;;;;;5091662;28;20043;-75
2023/10/21 02:37:03;;;;;;;44.40;16.15;;;;;;;;;;5090617;28;20032;-75
2023/10/21 02:39:30;;;;;;;50.45;16.52;;;;;;;;;;5091151;28;20028;-75
2023/10/21 02:41:55;;;;;;;46.20;16.55;;;;;;;;;;5090186;28;20486;-75
2023/10/21 02:44:22;;;;;;;45.70;16.38;;;;;;;;;;5091119;28;20043;-75
2023/10/21 02:46:51;;;;;;;48.67;16.10;;;;;;;;;;5091235;28;20440;-75
2023/10/21 02:49:17;;;;;;;45.45;16.13;;;;;;;;;;5090373;28;20127;-75
2023/10/21 02:51:43;;;;;;;48.20;16.52;;;;;;;;;;5090984;28;20119;-75
2023/10/21 02:54:09;;;;;;;41.80;15.75;;;;;;;;;;5091051;28;20047;-75
2023/10/21 02:56:35;;;;;;;50.58;16.65;;;;;;;;;;5091521;28;20032;-75
2023/10/21 02:59:02;;;;;;;41.53;16.05;;;;;;;;;;5091183;28;20543;-75
2023/10/21 03:01:28;;;;;;;50.13;16.60;;;;;;;;;;5091716;28;20482;-75
2023/10/21 03:03:54;;;;;;;48.15;16.20;;;;;;;;;;5091036;28;20038;-75
2023/10/21 03:06:24;;;;;;;44.58;16.73;;;;;;;;;;5089524;28;20052;-75
2023/10/21 03:08:50;;;;;;;42.38;15.50;;;;;;;;;;5090894;28;20039;-75
2023/10/21 03:11:16;;;;;;;44.88;15.82;;;;;;;;;;5090019;28;20135;-75
2023/10/21 03:13:42;;;;;;;38.10;14.70;;;;;;;;;;5092023;28;20534;-75
2023/10/21 03:16:09;;;;;;;43.90;15.55;;;;;;;;;;5090143;28;20119;-75
2023/10/21 03:18:36;;;;;;;39.70;15.38;;;;;;;;;;5089563;28;20481;-75
2023/10/21 03:21:03;;;;;;;43.05;15.93;;;;;;;;;;5090940;28;20036;-75
2023/10/21 03:23:29;;;;;;;43.92;15.32;;;;;;;;;;5091006;28;20481;-75
2023/10/21 03:25:56;;;;;;;45.65;15.77;;;;;;;;;;5090524;28;20157;-75
2023/10/21 03:28:22;;;;;;;40.72;15.07;;;;;;;;;;5086240;28;20052;-75
2023/10/21 03:30:48;;;;;;;36.53;14.35;;;;;;;;;;5091340;28;20382;-75
2023/10/21 03:33:15;;;;;;;45.15;16.23;;;;;;;;;;5091709;28;20043;-75
2023/10/21 03:35:41;;;;;;;42.05;15.43;;;;;;;;;;5089348;28;20517;-75
2023/10/21 03:38:07;;;;;;;43.10;15.88;;;;;;;;;;5090395;28;20028;-75
2023/10/21 03:40:33;;;;;;;44.67;16.17;;;;;;;;;;5107163;22;20048;-75
2023/10/21 03:42:59;;;;;;;45.78;16.33;;;;;;;;;;5111451;28;20074;-74
2023/10/21 03:45:25;;;;;;;43.65;16.80;;;;;;;;;;5110118;28;20032;-74
2023/10/21 03:47:51;;;;;;;49.28;16.77;;;;;;;;;;5102821;28;20039;-74
2023/10/21 03:50:17;;;;;;;39.72;16.35;;;;;;;;;;5112021;28;20059;-74
2023/10/21 03:52:43;;;;;;;39.95;17.05;;;;;;;;;;5110291;28;20050;-74
2023/10/21 03:55:09;;;;;;;39.15;15.90;;;;;;;;;;5106322;28;20408;-74
2023/10/21 03:57:35;;;;;;;40.78;15.43;;;;;;;;;;5108854;28;20038;-74
2023/10/21 04:00:04;;;;;;;38.78;15.85;;;;;;;;;;5110444;28;20031;-74
2023/10/21 04:02:30;;;;;;;39.45;16.33;;;;;;;;;;5101738;28;20114;-74
2023/10/21 04:04:56;;;;;;;34.70;15.75;;;;;;;;;;5106507;28;20169;-74
2023/10/21 04:07:23;;;;;;;36.00;14.88;;;;;;;;;;5099570;28;20055;-74
2023/10/21 04:09:49;;;;;;;39.60;15.50;;;;;;;;;;5109096;28;20049;-74
2023/10/21 04:12:15;;;;;;;35.65;14.23;;;;;;;;;;5108675;28;20023;-74
2023/10/21 04:14:41;;;;;;;35.85;14.75;;;;;;;;;;5091468;28;20043;-74
2023/10/21 04:17:07;;;;;;;33.58;14.00;;;;;;;;;;5105730;28;20031;-74
2023/10/21 04:19:33;;;;;;;30.77;14.20;;;;;;;;;;5115226;28;20042;-74
2023/10/21 04:21:59;;;;;;;32.45;13.75;;;;;;;;;;5112953;28;20047;-73
2023/10/21 04:24:25;;;;;;;35.60;14.50;;;;;;;;;;5108952;28;20506;-73
2023/10/21 04:26:51;;;;;;;34.10;14.15;;;;;;;;;;5105385;28;20043;-73
2023/10/21 04:29:17;;;;;;;32.05;14.13;;;;;;;;;;5111133;28;20035;-73
2023/10/21 04:31:43;;;;;;;34.75;15.07;;;;;;;;;;5110833;28;20122;-73
2023/10/21 04:34:09;;;;;;;33.70;14.23;;;;;;;;;;5108272;28;20649;-73
2023/10/21 04:36:35;;;;;;;31.27;14.18;;;;;;;;;;5113887;28;20031;-73
2023/10/21 04:39:01;;;;;;;34.95;14.27;;;;;;;;;;5114245;28;20036;-73
2023/10/21 04:41:27;;;;;;;30.98;13.57;;;;;;;;;;5095310;28;20047;-73
2023/10/21 04:43:53;;;;;;;32.25;13.88;;;;;;;;;;5108446;28;20108;-73
2023/10/21 04:46:19;;;;;;;35.83;13.48;;;;;;;;;;5109553;28;20039;-73
2023/10/21 04:48:45;;;;;;;32.13;14.57;;;;;;;;;;5113768;28;20040;-73
2023/10/21 04:51:11;;;;;;;26.55;12.93;;;;;;;;;;5113572;28;20047;-74
2023/10/21 04:53:37;;;;;;;31.15;14.30;;;;;;;;;;5107976;28;20088;-74
2023/10/21 04:56:03;;;;;;;33.72;13.20;;;;;;;;;;5109787;28;20114;-74
2023/10/21 04:58:29;;;;;;;34.63;14.55;;;;;;;;;;5112854;28;20035;-74
2023/10/21 05:00:55;;;;;;;34.08;14.05;;;;;;;;;;5113981;28;20039;-74
2023/10/21 05:03:22;;;;;;;31.83;12.50;;;;;;;;;;5109982;28;20516;-74
2023/10/21 05:05:48;;;;;;;35.03;14.68;;;;;;;;;;5104262;28;20047;-74
2023/10/21 05:08:14;;;;;;;30.15;13.68;;;;;;;;;;5104946;28;20036;-73
2023/10/21 05:10:40;;;;;;;24.20;12.13;;;;;;;;;;5112098;28;20507;-73
2023/10/21 05:13:06;;;;;;;21.55;10.60;;;;;;;;;;5112292;28;20417;-73
2023/10/21 05:15:32;;;;;;;27.90;13.57;;;;;;;;;;5109008;28;20032;-74
2023/10/21 05:17:58;;;;;;;27.73;13.02;;;;;;;;;;5113689;28;20040;-74
2023/10/21 05:20:24;;;;;;;31.38;13.27;;;;;;;;;;5113830;28;20036;-73
2023/10/21 05:22:50;;;;;;;30.75;13.18;;;;;;;;;;5113529;28;20031;-73
2023/10/21 05:25:16;;;;;;;32.47;13.88;;;;;;;;;;5112269;28;20084;-74
2023/10/21 05:27:42;;;;;;;29.13;12.48;;;;;;;;;;5114261;28;20032;-74
2023/10/21 05:30:08;;;;;;;26.27;13.02;;;;;;;;;;5114070;28;20116;-74
2023/10/21 05:32:34;;;;;;;28.77;13.65;;;;;;;;;;5112974;28;20553;-74
2023/10/21 05:35:00;;;;;;;31.77;12.43;;;;;;;;;;5112631;28;20069;-74
2023/10/21 05:37:26;;;;;;;29.98;13.02;;;;;;;;;;5113744;28;20066;-74
2023/10/21 05:39:52;;;;;;;29.90;12.55;;;;;;;;;;5112413;28;20063;-74
2023/10/21 05:42:18;;;;;;;31.30;13.73;;;;;;;;;;5107733;28;20424;-74
2023/10/21 05:44:44;;;;;;;33.80;13.10;;;;;;;;;;5104575;28;20039;-74
2023/10/21 05:47:10;;;;;;;32.85;13.60;;;;;;;;;;5109105;28;20050;-74
2023/10/21 05:49:36;;;;;;;31.60;13.23;;;;;;;;;;5106034;28;20462;-74
2023/10/21 05:52:02;;;;;;;31.85;12.82;;;;;;;;;;5108905;28;20040;-74
2023/10/21 05:54:32;;;;;;;29.73;13.50;;;;;;;;;;5113560;28;20032;-74
2023/10/21 05:56:58;;;;;;;29.52;12.98;;;;;;;;;;5097878;28;20401;-75
2023/10/21 05:59:24;;;;;;;34.10;13.38;;;;;;;;;;5094553;28;20036;-77
2023/10/21 06:01:50;;;;;;;30.25;13.60;;;;;;;;;;5105919;28;20039;-77
2023/10/21 06:04:16;;;;;;;31.80;12.85;;;;;;;;;;5111648;28;20392;-76
2023/10/21 06:06:42;;;;;;;30.45;14.35;;;;;;;;;;5102254;28;20127;-76
2023/10/21 06:09:09;;;;;;;30.92;13.05;;;;;;;;;;5100606;28;20101;-76
2023/10/21 06:11:36;;;;;;;33.22;13.75;;;;;;;;;;5099420;28;20038;-76
2023/10/21 06:14:02;;;;;;;33.78;13.52;;;;;;;;;;5103020;28;20044;-76
2023/10/21 06:16:28;;;;;;;32.25;13.65;;;;;;;;;;5112248;28;20036;-76
2023/10/21 06:18:54;;;;;;;29.85;13.27;;;;;;;;;;5106368;28;20032;-76
2023/10/21 06:21:20;;;;;;;32.95;13.20;;;;;;;;;;5112370;28;20080;-76
2023/10/21 06:23:46;;;;;;;35.55;14.50;;;;;;;;;;5112130;28;20474;-74
2023/10/21 06:26:12;;;;;;;26.35;12.02;;;;;;;;;;5111019;28;20407;-74
2023/10/21 06:28:38;;;;;;;28.25;13.60;;;;;;;;;;5110549;28;20114;-70
2023/10/21 06:31:05;;;;;;;126.55;25.38;;;;;;;;;;5086647;28;20036;-70
2023/10/21 06:33:31;;;;;;;66.25;21.77;;;;;;;;;;5104349;28;20036;-70
2023/10/21 06:35:57;;;;;;;29.90;13.40;;;;;;;;;;5106517;28;20061;-70
2023/10/21 06:38:22;;;;;;;77.53;17.42;;;;;;;;;;5102627;28;20054;-70
2023/10/21 06:40:48;;;;;;;37.67;13.98;;;;;;;;;;5104121;28;20466;-70
2023/10/21 06:43:14;;;;;;;34.25;13.80;;;;;;;;;;5084885;28;20381;-70
2023/10/21 06:45:40;;;;;;;43.20;15.43;;;;;;;;;;5110545;28;20047;-70
2023/10/21 06:48:07;;;;;;;30.50;14.10;;;;;;;;;;5110015;28;20108;-70
2023/10/21 06:50:35;;;;;;;30.95;12.32;;;;;;;;;;5099192;28;20047;-70
2023/10/21 06:53:01;;;;;;;28.92;13.10;;;;;;;;;;5105429;28;20040;-70
2023/10/21 06:55:27;;;;;;;29.50;12.70;;;;;;;;;;5103742;28;20029;-70
2023/10/21 06:57:53;;;;;;;31.98;12.68;;;;;;;;;;5097719;28;20160;-70
2023/10/21 07:00:19;;;;;;;27.45;13.07;;;;;;;;;;5105793;28;20043;-70
2023/10/21 07:02:45;;;;;;;32.88;13.02;;;;;;;;;;5102959;28;20032;-70
2023/10/21 07:05:11;;;;;;;34.90;13.27;;;;;;;;;;5100241;28;20093;-70
2023/10/21 07:07:40;;;;;;;28.27;12.48;;;;;;;;;;5102780;28;20036;-70
2023/10/21 07:10:07;;;;;;;33.78;12.82;;;;;;;;;;5104031;28;20550;-70
2023/10/21 07:12:34;;;;;;;28.58;12.55;;;;;;;;;;5103845;28;20040;-70
2023/10/21 07:15:00;;;;;;;28.23;12.02;;;;;;;;;;5110681;28;20075;-69
2023/10/21 07:17:26;;;;;;;26.77;12.55;;;;;;;;;;5106204;28;20036;-69
2023/10/21 07:19:52;;;;;;;23.05;11.50;;;;;;;;;;5112190;28;20046;-69
2023/10/21 07:22:18;;;;;;;29.60;11.60;;;;;;;;;;5109337;28;20046;-70
2023/10/21 07:24:45;;;;;;;28.33;11.70;;;;;;;;;;5103094;28;20051;-70
2023/10/21 07:27:11;;;;;;;26.40;11.95;;;;;;;;;;5108654;28;20092;-70
2023/10/21 07:29:37;;;;;;;26.40;11.93;;;;;;;;;;5103419;28;20028;-70
2023/10/21 07:32:04;;;;;;;25.92;11.23;;;;;;;;;;5101393;28;20459;-70
2023/10/21 07:34:30;;;;;;;28.98;11.73;;;;;;;;;;5106160;28;20417;-70
2023/10/21 07:36:57;;;;;;;23.58;11.23;;;;;;;;;;5104572;28;20409;-70
2023/10/21 07:39:23;;;;;;;21.38;11.48;;;;;;;;;;5104355;28;20166;-70
2023/10/21 07:41:49;;;;;;;23.05;10.90;;;;;;;;;;5111208;28;20067;-70
2023/10/21 07:44:15;;;;;;;24.40;11.45;;;;;;;;;;5101154;28;20047;-70
2023/10/21 07:46:41;;;;;;;22.08;11.95;;;;;;;;;;5110706;28;20100;-70
2023/10/21 07:49:07;;;;;;;24.38;11.95;;;;;;;;;;5109966;28;20076;-72
2023/10/21 07:51:33;;;;;;;25.33;11.77;;;;;;;;;;5110886;28;20062;-71
2023/10/21 07:53:59;;;;;;;20.55;11.25;;;;;;;;;;5110570;28;20092;-71
2023/10/21 07:56:26;;;;;;;23.70;11.43;;;;;;;;;;5109348;28;20039;-71
2023/10/21 07:58:51;;;;;;;23.38;11.80;;;;;;;;;;5108399;28;20076;-71
2023/10/21 08:01:19;;;;;;;23.70;11.27;;;;;;;;;;5102652;28;20078;-71
2023/10/21 08:03:45;;;;;;;22.50;11.07;;;;;;;;;;5104364;28;20122;-72
2023/10/21 08:06:11;;;;;;;20.50;10.98;;;;;;;;;;5101715;28;20110;-72
2023/10/21 08:08:37;;;;;;;20.05;10.25;;;;;;;;;;5097996;28;20028;-71
2023/10/21 08:11:03;;;;;;;18.00;10.20;;;;;;;;;;5099562;28;20593;-71
2023/10/21 08:13:29;;;;;;;19.63;10.10;;;;;;;;;;5109437;28;20402;-71
2023/10/21 08:15:56;;;;;;;24.15;10.20;;;;;;;;;;5104846;28;20043;-71
2023/10/21 08:18:22;;;;;;;21.55;10.30;;;;;;;;;;5100611;28;20035;-70
2023/10/21 08:20:49;;;;;;;17.20;9.43;;;;;;;;;;5110068;28;20396;-70
2023/10/21 08:23:15;;;;;;;21.05;10.30;;;;;;;;;;5111039;28;20488;-69
2023/10/21 08:25:41;;;;;;;20.13;10.40;;;;;;;;;;5111474;28;20043;-69
2023/10/21 08:28:08;;;;;;;18.75;9.30;;;;;;;;;;5110698;28;20076;-69
2023/10/21 08:30:36;;;;;;;17.33;9.55;;;;;;;;;;5103949;28;20056;-69
2023/10/21 08:33:02;;;;;;;19.23;9.45;;;;;;;;;;5111312;28;20104;-69
2023/10/21 08:35:28;;;;;;;17.13;8.75;;;;;;;;;;5110432;28;20050;-69
2023/10/21 08:37:54;;;;;;;16.88;9.07;;;;;;;;;;5111247;28;20032;-69
2023/10/21 08:40:20;;;;;;;16.50;8.20;;;;;;;;;;5111017;28;20097;-70
2023/10/21 08:42:47;;;;;;;15.23;8.25;;;;;;;;;;5109388;28;20039;-69
2023/10/21 08:45:13;;;;;;;16.23;8.27;;;;;;;;;;5103906;28;20408;-70
2023/10/21 08:47:40;;;;;;;17.48;7.88;;;;;;;;;;5111444;28;20035;-70
2023/10/21 08:50:07;;;;;;;12.35;8.02;;;;;;;;;;5111001;28;20112;-70
2023/10/21 08:52:34;;;;;;;15.02;7.43;;;;;;;;;;5114437;28;20043;-70
2023/10/21 08:55:00;;;;;;;14.25;6.70;;;;;;;;;;5114307;28;20047;-70
2023/10/21 08:57:27;;;;;;;12.02;7.15;;;;;;;;;;5114836;28;20493;-70
2023/10/21 08:59:53;;;;;;;15.07;7.30;;;;;;;;;;5108608;28;20036;-70
2023/10/21 09:02:19;;;;;;;10.73;6.60;;;;;;;;;;5114336;28;20104;-70
2023/10/21 09:04:45;;;;;;;10.70;6.35;;;;;;;;;;5113693;28;20032;-70
2023/10/21 09:07:12;;;;;;;13.15;6.80;;;;;;;;;;5114847;28;20398;-70
2023/10/21 09:09:38;;;;;;;10.18;5.88;;;;;;;;;;5114619;28;20390;-70
2023/10/21 09:12:13;;;;;;;9.77;5.95;;;;;;;;;;5112824;28;20515;-70
2023/10/21 09:14:52;;;;;;;10.20;6.00;;;;;;;;;;5109353;28;20051;-69
2023/10/21 09:17:19;;;;;;;12.02;5.40;;;;;;;;;;5106812;28;20493;-69
2023/10/21 09:19:48;;;;;;;11.88;4.97;;;;;;;;;;5114026;28;20100;-70
2023/10/21 09:22:21;;;;;;;10.20;5.22;;;;;;;;;;5114267;28;20052;-70
2023/10/21 09:24:47;;;;;;;16.48;5.68;;;;;;;;;;5113411;28;20036;-71
2023/10/21 09:27:14;;;;;;;7.90;4.47;;;;;;;;;;5113853;28;20044;-70
2023/10/21 09:29:40;;;;;;;7.68;4.30;;;;;;;;;;5107365;28;20040;-70
2023/10/21 09:32:06;;;;;;;5.50;3.88;;;;;;;;;;5109273;28;20036;-70
2023/10/21 09:34:33;;;;;;;8.63;3.92;;;;;;;;;;5104007;28;20057;-70
2023/10/21 09:36:59;;;;;;;6.30;3.35;;;;;;;;;;5108229;28;20489;-70
2023/10/21 09:39:26;;;;;;;3.97;3.40;;;;;;;;;;5110558;28;20034;-71
2023/10/21 09:41:52;;;;;;;6.03;3.50;;;;;;;;;;5127231;22;20083;-70
2023/10/21 09:44:18;;;;;;;7.30;3.47;;;;;;;;;;5093249;28;20043;-70
2023/10/21 09:46:45;;;;;;;5.60;2.80;;;;;;;;;;5109663;28;20035;-70
2023/10/21 09:49:13;;;;;;;3.88;2.03;;;;;;;;;;5114364;27;20032;-71
2023/10/21 09:51:46;;;;;;;5.28;2.28;;;;;;;;;;5116679;27;20101;-71
2023/10/21 09:54:14;;;;;;;5.07;3.05;;;;;;;;;;5114392;27;20040;-71
2023/10/21 09:56:40;;;;;;;5.15;2.40;;;;;;;;;;5112220;28;20142;-72
2023/10/21 09:59:07;;;;;;;2.70;2.03;;;;;;;;;;5113839;28;20146;-72
2023/10/21 10:01:37;;;;;;;6.82;4.28;;;;;;;;;;5103970;28;20039;-72
2023/10/21 10:04:05;;;;;;;5.53;3.58;;;;;;;;;;5105768;27;20044;-71
2023/10/21 10:06:32;;;;;;;3.60;1.92;;;;;;;;;;5103054;28;20040;-71
2023/10/21 10:08:58;;;;;;;2.97;2.00;;;;;;;;;;5105329;28;20039;-71
2023/10/21 10:11:25;;;;;;;3.00;1.98;;;;;;;;;;5109123;28;20495;-71
2023/10/21 10:13:51;;;;;;;3.08;1.90;;;;;;;;;;5110303;28;20028;-71
2023/10/21 10:16:22;;;;;;;3.25;1.30;;;;;;;;;;5113094;28;20122;-71
2023/10/21 10:18:52;;;;;;;;;;;;;;;;;;5113191;27;20115;-71
2023/10/21 10:21:20;;;;;;;1.25;1.08;;;;;;;;;;5115004;27;19923;-71
2023/10/21 10:23:50;;;;;;;2.85;1.00;;;;;;;;;;5109616;27;20489;-72
2023/10/21 10:26:16;;;;;;;3.15;1.00;;;;;;;;;;5106241;28;20078;-72
2023/10/21 10:28:42;;;;;;;3.10;0.93;;;;;;;;;;5114322;27;20303;-72
2023/10/21 10:31:09;;;;;;;6.47;1.20;;;;;;;;;;5096461;27;20489;-72
2023/10/21 10:33:35;;;;;;;1.38;0.80;;;;;;;;;;5117171;27;20039;-71
2023/10/21 10:36:06;;;;;;;2.08;1.23;;;;;;;;;;5092088;28;20442;-71
2023/10/21 10:38:34;;;;;;;4.03;1.10;;;;;;;;;;5112815;28;20035;-71
2023/10/21 10:41:15;;;;;;;1.70;0.85;;;;;;;;;;5094850;28;20051;-71
2023/10/21 10:44:01;;;;;;;2.67;1.00;;;;;;;;;;5108318;28;20050;-71
2023/10/21 10:46:28;;;;;;;2.53;0.93;;;;;;;;;;5110537;27;20043;-71
2023/10/21 10:48:54;;;;;;;3.40;1.23;;;;;;;;;;5116134;27;20118;-70
2023/10/21 10:51:27;;;;;;;2.65;1.05;;;;;;;;;;5112817;28;20398;-70
2023/10/21 10:53:56;;;;;;;3.50;1.23;;;;;;;;;;5114210;27;20035;-71
2023/10/21 10:56:22;;;;;;;2.42;0.90;;;;;;;;;;5110046;28;20059;-71
2023/10/21 10:58:49;;;;;;;2.47;0.80;;;;;;;;;;5111686;28;20103;-71
2023/10/21 11:01:25;;;;;;;2.67;0.70;;;;;;;;;;5114323;27;20053;-70
2023/10/21 11:03:55;;;;;;;2.88;0.73;;;;;;;;;;5109784;28;20035;-70
2023/10/21 11:06:23;;;;;;;1.10;0.70;;;;;;;;;;5115387;27;20071;-71
2023/10/21 11:08:49;;;;;;;1.80;0.60;;;;;;;;;;5108416;28;20483;-71
2023/10/21 11:11:15;;;;;;;1.10;0.70;;;;;;;;;;5108561;27;20040;-71
2023/10/21 11:13:43;;;;;;;1.58;0.90;;;;;;;;;;5109793;28;20696;-71
2023/10/21 11:16:09;;;;;;;2.13;0.70;;;;;;;;;;5095272;28;20047;-71
2023/10/21 11:18:36;;;;;;;0.80;0.70;;;;;;;;;;5109332;27;20481;-70
2023/10/21 11:21:02;;;;;;;0.85;0.70;;;;;;;;;;5115182;27;20044;-71
2023/10/21 11:23:28;;;;;;;1.42;0.80;;;;;;;;;;5117865;27;20429;-70
2023/10/21 11:25:56;;;;;;;0.70;0.68;;;;;;;;;;5118676;27;20032;-71
2023/10/21 11:28:22;;;;;;;0.85;0.73;;;;;;;;;;5113354;27;20074;-71
2023/10/21 11:30:48;;;;;;;1.23;0.70;;;;;;;;;;5104671;28;20081;-71
2023/10/21 11:33:14;;;;;;;0.93;0.60;;;;;;;;;;5112192;28;20109;-71
2023/10/21 11:35:41;;;;;;;1.33;0.70;;;;;;;;;;5112840;27;20036;-69
2023/10/21 11:38:07;;;;;;;2.08;0.73;;;;;;;;;;5111191;28;20123;-70
2023/10/21 11:40:36;;;;;;;1.00;0.60;;;;;;;;;;5112233;27;20099;-70
2023/10/21 11:43:04;;;;;;;2.67;0.80;;;;;;;;;;5109864;27;20035;-70
2023/10/21 11:45:30;;;;;;;2.22;0.70;;;;;;;;;;5108545;28;20085;-70
2023/10/21 11:47:57;;;;;;;0.63;0.50;;;;;;;;;;5110203;28;20035;-69
2023/10/21 11:50:33;;;;;;;2.08;0.57;;;;;;;;;;5114899;28;20477;-71
2023/10/21 11:53:05;;;;;;;2.58;0.52;;;;;;;;;;5098392;28;20047;-71
2023/10/21 12:14:36;;;;;;;1.52;0.70;;;;;;;;;;5090060;28;20051;-70
2023/10/21 12:17:00;;;;;;;1.83;0.65;;;;;;;;;;5090956;28;20097;-70
2023/10/21 12:19:46;;;;;;;2.45;0.65;;;;;;;;;;5077603;28;20043;-71
2023/10/21 12:30:44;;;;;;;2.33;0.90;;;;;;;;;;5078482;28;20047;-70
2023/10/21 12:35:54;;;;;;;2.30;0.77;;;;;;;;;;5074635;28;20124;-70
2023/10/21 12:38:40;;;;;;;1.98;0.88;;;;;;;;;;5073915;28;20883;-71
2023/10/21 12:41:20;;;;;;;2.35;0.82;;;;;;;;;;5071812;28;20047;-71
2023/10/21 12:43:48;;;;;;;2.05;0.70;;;;;;;;;;5076042;28;20043;-71
2023/10/21 12:46:17;;;;;;;2.17;0.70;;;;;;;;;;5086102;28;20045;-71
2023/10/21 12:48:51;;;;;;;2.45;0.70;;;;;;;;;;5075788;28;20040;-70
2023/10/21 12:51:17;;;;;;;2.38;0.60;;;;;;;;;;5076978;28;20048;-71
2023/10/21 12:53:43;;;;;;;2.47;0.73;;;;;;;;;;5074590;28;20448;-70
2023/10/21 12:56:10;;;;;;;2.78;0.60;;;;;;;;;;5081682;28;20028;-70
2023/10/21 12:58:36;;;;;;;2.13;0.65;;;;;;;;;;5086688;28;20044;-70
2023/10/21 13:01:04;;;;;;;2.15;0.70;;;;;;;;;;5084743;28;20044;-71
2023/10/21 13:03:31;;;;;;;3.33;0.65;;;;;;;;;;5080463;28;20062;-70
2023/10/21 13:05:57;;;;;;;1.52;0.63;;;;;;;;;;5079909;28;20163;-71
2023/10/21 13:08:23;;;;;;;3.40;0.70;;;;;;;;;;5090552;28;20044;-71
2023/10/21 13:10:49;;;;;;;3.55;0.65;;;;;;;;;;5080946;28;20149;-70
2023/10/21 13:13:17;;;;;;;1.67;0.60;;;;;;;;;;5076508;28;20094;-70
2023/10/21 13:15:46;;;;;;;3.20;0.60;;;;;;;;;;5085346;28;20058;-70
2023/10/21 13:18:12;;;;;;;3.15;0.65;;;;;;;;;;5081694;28;20071;-70
2023/10/21 13:20:39;;;;;;;3.20;0.80;;;;;;;;;;5092521;28;20480;-70
2023/10/21 13:23:05;;;;;;;4.07;0.75;;;;;;;;;;5077996;28;20033;-71
2023/10/21 13:25:33;;;;;;;2.70;0.70;;;;;;;;;;5084915;28;20124;-70
2023/10/21 13:27:59;;;;;;;4.65;0.82;;;;;;;;;;5095122;28;20080;-70
2023/10/21 13:30:26;;;;;;;3.50;0.80;;;;;;;;;;5086783;28;20560;-70
2023/10/21 13:32:52;;;;;;;2.10;0.88;;;;;;;;;;5075565;28;20122;-71
2023/10/21 13:35:18;;;;;;;4.15;0.90;;;;;;;;;;5085351;28;20470;-71
2023/10/21 13:37:45;;;;;;;2.60;0.93;;;;;;;;;;5093299;28;20115;-71
2023/10/21 13:40:15;;;;;;;2.50;0.90;;;;;;;;;;5088140;28;20032;-71
2023/10/21 13:42:45;;;;;;;3.05;0.70;;;;;;;;;;5079821;28;20040;-71
2023/10/21 13:45:19;;;;;;;2.35;0.70;;;;;;;;;;5088095;28;20040;-71
2023/10/21 13:47:49;;;;;;;2.42;0.70;;;;;;;;;;5074825;28;20127;-71
2023/10/21 13:50:15;;;;;;;3.75;0.80;;;;;;;;;;5089472;28;20469;-71
2023/10/21 13:52:43;;;;;;;2.95;0.90;;;;;;;;;;5081257;28;20048;-71
2023/10/21 13:55:14;;;;;;;2.65;0.80;;;;;;;;;;5080884;28;20054;-71
2023/10/21 13:57:40;;;;;;;2.58;0.80;;;;;;;;;;5079371;28;20044;-71
2023/10/21 14:00:25;;;;;;;2.08;0.75;;;;;;;;;;5091236;28;20043;-72
2023/10/21 14:02:51;;;;;;;3.22;0.98;;;;;;;;;;5080995;28;20075;-71
2023/10/21 14:05:17;;;;;;;3.72;0.85;;;;;;;;;;5075033;28;20036;-71
2023/10/21 14:07:43;;;;;;;4.47;1.20;;;;;;;;;;5105074;28;20198;-71
2023/10/21 14:10:09;;;;;;;4.13;0.90;;;;;;;;;;5071155;28;20410;-71
2023/10/21 14:12:35;;;;;;;2.67;1.08;;;;;;;;;;5072321;28;20032;-71
2023/10/21 14:15:10;;;;;;;2.25;1.13;;;;;;;;;;5073868;28;20402;-71
2023/10/21 14:17:36;;;;;;;3.83;1.40;;;;;;;;;;5085120;28;20564;-71
2023/10/21 14:20:04;;;;;;;4.72;1.02;;;;;;;;;;5084287;28;20470;-71
2023/10/21 14:22:30;;;;;;;3.35;1.20;;;;;;;;;;5085310;28;20056;-70
2023/10/21 14:24:56;;;;;;;4.72;1.15;;;;;;;;;;5087079;28;20071;-70
2023/10/21 14:27:23;;;;;;;3.58;1.58;;;;;;;;;;5078997;28;20057;-70
2023/10/21 14:29:49;;;;;;;2.92;1.30;;;;;;;;;;5082999;28;20040;-70
2023/10/21 14:32:16;;;;;;;2.70;1.00;;;;;;;;;;5085459;28;20443;-70
2023/10/21 14:34:42;;;;;;;7.22;1.40;;;;;;;;;;5076828;28;20028;-71
2023/10/21 14:37:08;;;;;;;2.22;0.90;;;;;;;;;;5081990;28;20105;-71
2023/10/21 14:39:35;;;;;;;4.72;1.00;;;;;;;;;;5075960;28;20041;-71
2023/10/21 14:42:01;;;;;;;4.25;1.20;;;;;;;;;;5079761;28;20044;-71
2023/10/21 14:44:27;;;;;;;4.25;1.10;;;;;;;;;;5090081;28;20053;-70
2023/10/21 14:46:53;;;;;;;2.97;1.02;;;;;;;;;;5069063;28;20032;-70
2023/10/21 14:49:19;;;;;;;2.78;0.82;;;;;;;;;;5091147;28;20048;-70
2023/10/21 14:51:45;;;;;;;2.85;1.00;;;;;;;;;;5083726;28;21454;-71
2023/10/21 14:54:11;;;;;;;2.50;0.70;;;;;;;;;;5087614;28;20065;-70